Time;durP1;ratioP1;P1;durP2;ratioP2;P2;SDS_P1;SDS_P2;PMS_P1;PMS_P2;Temp;Humidity;BMP_temperature;BMP_pressure;BME280_temperature;BME280_humidity;BME280_pressure;Samples;Min_cycle;Max_cycle;Signal;HPM_P1;HPM_P2
2022/04/02 00:00:16;;;;;;;51.17;12.70;;;;;;;16.74;58.83;97975.00;6272903;22;20501;-88
2022/04/02 00:02:45;;;;;;;44.90;10.90;;;;;;;16.18;59.29;97899.91;6272608;22;20019;-88
2022/04/02 00:05:11;;;;;;;37.55;11.73;;;;;;;16.49;59.00;97915.09;6275083;22;20350;-89
2022/04/02 00:07:37;;;;;;;41.17;10.82;;;;;;;15.61;58.98;97795.91;6288291;22;20007;-86
2022/04/02 00:10:05;;;;;;;51.80;12.27;;;;;;;16.62;58.67;97963.69;6291943;22;20037;-87
2022/04/02 00:12:31;;;;;;;48.08;12.93;;;;;;;15.70;58.82;97828.97;6295064;22;20000;-86
2022/04/02 00:14:57;;;;;;;43.40;12.57;;;;;;;15.83;58.70;97895.88;6294441;22;20000;-86
2022/04/02 00:17:22;;;;;;;48.22;12.20;;;;;;;16.51;58.90;97984.91;6278959;22;20064;-89
2022/04/02 00:19:48;;;;;;;44.70;10.70;;;;;;;16.20;58.87;97930.56;6276345;22;20015;-89
2022/04/02 00:22:13;;;;;;;45.35;13.27;;;;;;;16.00;59.24;97879.00;6276149;22;20003;-88
2022/04/02 00:24:39;;;;;;;46.88;11.35;;;;;;;16.11;58.79;97896.66;6274841;22;20006;-88
2022/04/02 00:27:04;;;;;;;51.08;13.77;;;;;;;16.01;58.74;97918.69;6274796;22;19999;-89
2022/04/02 00:29:30;;;;;;;50.08;12.68;;;;;;;15.45;58.71;97824.16;6274878;22;20027;-88
2022/04/02 00:31:55;;;;;;;44.97;11.52;;;;;;;15.41;58.87;97793.81;6274475;22;20357;-89
2022/04/02 00:34:21;;;;;;;43.67;10.93;;;;;;;16.43;58.53;97958.75;6274355;22;19999;-89
2022/04/02 00:36:47;;;;;;;48.80;11.10;;;;;;;16.08;58.52;97905.16;6274480;22;20003;-89
2022/04/02 00:39:12;;;;;;;51.55;13.00;;;;;;;16.42;58.75;97957.13;6274564;22;20353;-89
2022/04/02 00:41:38;;;;;;;44.25;11.25;;;;;;;15.91;58.80;97880.53;6300417;22;20452;-89
2022/04/02 00:44:09;;;;;;;40.92;11.40;;;;;;;16.18;59.00;97918.56;6274525;22;19995;-88
2022/04/02 00:46:34;;;;;;;47.60;11.85;;;;;;;15.72;58.59;97859.59;6274376;22;20027;-88
2022/04/02 00:49:00;;;;;;;43.33;11.38;;;;;;;15.71;58.59;97822.59;6274234;22;19991;-88
2022/04/02 00:51:26;;;;;;;42.42;11.60;;;;;;;15.70;58.63;97824.44;6274412;22;19996;-89
2022/04/02 00:53:51;;;;;;;43.83;12.02;;;;;;;16.44;58.51;97972.88;6274255;22;20364;-88
2022/04/02 00:56:18;;;;;;;45.67;11.27;;;;;;;16.35;58.87;97953.03;6274268;22;19996;-89
2022/04/02 00:58:44;;;;;;;44.70;12.20;;;;;;;16.18;58.96;97929.19;6274002;22;20000;-89
2022/04/02 01:01:10;;;;;;;40.95;10.80;;;;;;;15.21;58.66;97821.78;6274262;22;20016;-88
2022/04/02 01:03:36;;;;;;;46.65;12.30;;;;;;;15.75;59.16;97872.41;6274254;22;19996;-89
2022/04/02 01:06:02;;;;;;;56.40;13.63;;;;;;;16.27;59.26;97946.31;6274133;22;20007;-88
2022/04/02 01:08:28;;;;;;;47.22;12.30;;;;;;;15.24;59.13;97786.72;6275673;22;20084;-88
2022/04/02 01:10:56;;;;;;;45.72;11.38;;;;;;;16.06;58.83;97912.59;6274140;22;20003;-89
2022/04/02 01:13:23;;;;;;;45.45;10.95;;;;;;;16.04;59.35;97914.72;6273873;22;20011;-88
2022/04/02 01:15:48;;;;;;;47.38;11.75;;;;;;;15.90;59.14;97911.66;6274072;22;20031;-89
2022/04/02 01:18:14;;;;;;;46.95;11.27;;;;;;;14.85;59.05;97729.41;6274187;22;20003;-89
2022/04/02 01:20:39;;;;;;;46.60;10.45;;;;;;;15.80;58.98;97879.63;6273927;22;19999;-88
2022/04/02 01:23:05;;;;;;;40.90;11.40;;;;;;;15.66;58.96;97857.13;6274014;22;20458;-89
2022/04/02 01:25:34;;;;;;;43.30;10.90;;;;;;;15.75;59.38;97890.22;6273834;22;19996;-88
2022/04/02 01:28:00;;;;;;;42.63;11.57;;;;;;;16.04;59.24;97922.69;6274187;22;20418;-89
2022/04/02 01:30:27;;;;;;;43.03;11.38;;;;;;;15.40;59.18;97829.44;6275282;22;20349;-89
2022/04/02 01:32:53;;;;;;;44.10;11.52;;;;;;;16.04;59.07;97914.72;6273871;22;19999;-89
2022/04/02 01:35:21;;;;;;;41.50;10.40;;;;;;;16.02;58.93;97930.13;6274113;22;20061;-88
2022/04/02 01:37:47;;;;;;;35.67;11.18;;;;;;;15.93;58.86;97881.88;6273641;22;20003;-88
2022/04/02 01:40:12;;;;;;;50.95;11.20;;;;;;;15.74;59.19;97880.63;6273743;22;20438;-88
2022/04/02 01:42:38;;;;;;;45.08;12.93;;;;;;;15.41;58.72;97813.22;6275202;22;20079;-88
2022/04/02 01:45:04;;;;;;;45.97;11.07;;;;;;;15.46;59.11;97823.09;6273857;22;20445;-88
2022/04/02 01:47:29;;;;;;;40.63;11.57;;;;;;;15.32;58.95;97813.91;6273510;22;19995;-88
2022/04/02 01:49:55;;;;;;;37.60;11.32;;;;;;;15.71;58.98;97852.66;6273658;22;20010;-89
2022/04/02 01:52:21;;;;;;;34.95;9.40;;;;;;;15.96;58.75;97902.66;6275319;22;20327;-88
2022/04/02 01:54:47;;;;;;;44.45;10.75;;;;;;;15.57;58.67;97838.09;6274885;22;20380;-89
2022/04/02 01:57:13;;;;;;;39.83;12.00;;;;;;;14.99;58.70;97767.88;6273496;22;19996;-89
2022/04/02 01:59:40;;;;;;;42.50;9.68;;;;;;;15.72;58.57;97869.44;6273273;22;20441;-89
2022/04/02 02:02:07;;;;;;;42.65;9.75;;;;;;;15.55;58.72;97864.16;6274915;22;20034;-89
2022/04/02 02:04:34;;;;;;;36.92;10.25;;;;;;;15.63;58.62;97862.97;6273772;22;20019;-89
2022/04/02 02:07:00;;;;;;;43.75;10.50;;;;;;;14.84;58.25;97786.25;6273657;22;20418;-89
2022/04/02 02:09:26;;;;;;;35.00;9.60;;;;;;;14.95;58.30;97769.41;6273661;22;20071;-89
2022/04/02 02:11:52;;;;;;;37.38;9.93;;;;;;;15.07;58.32;97812.59;6273568;22;20035;-88
2022/04/02 02:14:18;;;;;;;33.42;9.75;;;;;;;14.91;57.94;97794.88;6273509;22;20004;-89
2022/04/02 02:16:43;;;;;;;33.55;9.02;;;;;;;15.13;58.04;97870.09;6273380;22;20010;-88
2022/04/02 02:19:09;;;;;;;40.13;11.02;;;;;;;15.22;58.07;97857.97;6273833;22;19996;-88
2022/04/02 02:21:34;;;;;;;35.15;9.20;;;;;;;15.88;58.09;97970.47;6273441;22;20031;-88
2022/04/02 02:24:00;;;;;;;31.40;9.05;;;;;;;15.62;57.95;97923.34;6274813;22;20326;-88
2022/04/02 02:26:25;;;;;;;36.67;10.55;;;;;;;14.74;57.58;97788.81;6273123;22;20353;-89
2022/04/02 02:28:51;;;;;;;32.40;9.18;;;;;;;15.84;57.82;97956.03;6273182;22;20525;-90
2022/04/02 02:31:16;;;;;;;35.58;9.13;;;;;;;15.83;57.51;97953.63;6273138;22;20027;-89
2022/04/02 02:36:26;;;;;;;31.65;9.98;;;;;;;15.72;57.30;97950.06;6274492;22;20060;-89
2022/04/02 02:38:52;;;;;;;34.67;9.02;;;;;;;15.93;57.14;97975.03;6275230;22;20074;-89
2022/04/02 02:41:18;;;;;;;34.65;8.20;;;;;;;15.91;56.51;97958.50;6273232;22;20027;-89
2022/04/02 02:43:43;;;;;;;36.72;9.23;;;;;;;15.23;56.04;97864.09;6273203;22;20502;-88
2022/04/02 02:46:12;;;;;;;29.85;8.75;;;;;;;15.71;56.37;97926.38;6273329;22;20073;-88
2022/04/02 02:48:38;;;;;;;27.52;8.10;;;;;;;15.02;56.03;97833.81;6273400;22;19996;-89
2022/04/02 02:51:03;;;;;;;33.55;8.50;;;;;;;15.77;55.88;97967.94;6274799;22;19999;-89
2022/04/02 02:53:29;;;;;;;29.52;8.05;;;;;;;15.72;55.73;97979.34;6274635;22;19996;-88
2022/04/02 02:55:54;;;;;;;29.15;7.68;;;;;;;15.49;55.66;97929.81;6273221;22;20004;-89
2022/04/02 02:58:19;;;;;;;30.80;7.65;;;;;;;14.94;55.41;97844.88;6273140;22;19999;-88
2022/04/02 03:00:46;;;;;;;28.00;8.85;;;;;;;15.60;55.17;97959.19;6274560;22;20061;-89
2022/04/02 03:03:12;;;;;;;26.95;7.95;;;;;;;15.91;55.40;98027.72;6274114;22;20090;-88
2022/04/02 03:05:37;;;;;;;35.78;7.35;;;;;;;15.92;55.04;98017.88;6272857;22;20465;-89
2022/04/02 03:08:03;;;;;;;31.75;7.22;;;;;;;15.32;55.17;97922.94;6273056;22;20004;-89
2022/04/02 03:10:30;;;;;;;26.80;7.47;;;;;;;15.70;54.96;97985.97;6274881;22;20437;-88
2022/04/02 03:12:57;;;;;;;26.77;7.40;;;;;;;15.94;54.59;98011.25;6273296;22;20003;-88
2022/04/02 03:15:24;;;;;;;31.30;7.85;;;;;;;15.94;54.49;98015.75;6273249;22;20075;-89
2022/04/02 03:17:50;;;;;;;29.30;7.25;;;;;;;14.84;54.44;97853.50;6273091;22;20384;-89
2022/04/02 03:20:18;;;;;;;27.27;7.38;;;;;;;15.93;54.45;98011.50;6273008;22;20000;-89
2022/04/02 03:22:45;;;;;;;27.92;7.32;;;;;;;15.91;54.34;98021.59;6272774;22;20144;-89
2022/04/02 03:25:19;;;;;;;27.55;6.53;;;;;;;15.91;54.07;98019.72;6272979;22;20002;-88
2022/04/02 03:27:46;;;;;;;23.85;6.28;;;;;;;15.68;54.38;98001.38;6273465;22;20582;-89
2022/04/02 03:30:17;;;;;;;24.27;6.30;;;;;;;15.31;54.22;97932.78;6273158;22;20007;-88
2022/04/02 03:32:42;;;;;;;26.23;6.68;;;;;;;15.85;54.04;98026.03;6273185;22;19995;-89
2022/04/02 03:35:09;;;;;;;22.83;6.40;;;;;;;15.18;54.07;97949.91;6273349;22;20031;-89
2022/04/02 03:37:37;;;;;;;28.15;6.53;;;;;;;15.67;54.14;98035.16;6274808;22;20070;-89
2022/04/02 03:40:05;;;;;;;32.13;6.38;;;;;;;15.64;54.31;98034.84;6273120;22;20443;-88
2022/04/02 03:42:32;;;;;;;26.90;6.97;;;;;;;15.48;54.03;98025.81;6272627;22;20010;-88
2022/04/02 03:44:57;;;;;;;25.90;6.40;;;;;;;15.63;53.89;98046.53;6298374;22;20041;-89
2022/04/02 03:47:23;;;;;;;26.70;6.53;;;;;;;14.67;54.05;97907.72;6273694;22;20000;-88
2022/04/02 03:49:50;;;;;;;26.13;7.40;;;;;;;15.69;53.91;98053.53;6274724;22;19999;-88
2022/04/02 03:52:15;;;;;;;24.23;6.47;;;;;;;15.71;53.66;98057.56;6274758;22;19999;-89
2022/04/02 03:54:42;;;;;;;28.15;6.78;;;;;;;15.05;53.31;97952.91;6274870;22;20004;-89
2022/04/02 03:57:12;;;;;;;24.13;8.18;;;;;;;14.99;53.20;97963.72;6275061;22;20000;-87
2022/04/02 03:59:40;;;;;;;23.98;6.57;;;;;;;15.75;53.28;98073.81;6276159;22;19996;-89
2022/04/02 04:02:07;;;;;;;26.77;7.65;;;;;;;15.74;53.19;98083.66;6276134;22;20012;-89
2022/04/02 04:04:32;;;;;;;20.30;6.30;;;;;;;15.75;52.92;98085.28;6274734;22;20445;-88
2022/04/02 04:06:58;;;;;;;23.08;6.75;;;;;;;15.53;52.99;98061.25;6274870;22;20000;-89
2022/04/02 04:09:24;;;;;;;23.80;6.47;;;;;;;15.24;53.22;98028.69;6274574;22;19995;-89
2022/04/02 04:11:50;;;;;;;25.33;5.68;;;;;;;15.77;53.02;98096.47;6275059;22;19999;-88
2022/04/02 04:14:16;;;;;;;23.73;5.43;;;;;;;15.25;53.08;98017.00;6274382;22;20006;-88
2022/04/02 04:16:43;;;;;;;24.70;5.70;;;;;;;15.70;53.57;98087.06;6274227;22;20353;-88
2022/04/02 04:19:08;;;;;;;19.77;5.28;;;;;;;15.65;53.55;98082.47;6276384;22;20026;-88
2022/04/02 04:21:34;;;;;;;20.65;5.75;;;;;;;14.94;53.63;97986.53;6274541;22;20004;-88
2022/04/02 04:24:04;;;;;;;31.40;7.43;;;;;;;15.05;53.51;98023.88;6274640;22;20010;-88
2022/04/02 04:26:30;;;;;;;27.92;6.82;;;;;;;15.36;53.35;98073.78;6274889;22;20061;-88
2022/04/02 04:28:56;;;;;;;25.88;6.40;;;;;;;14.74;53.98;98014.63;6274347;22;19999;-89
2022/04/02 04:31:21;;;;;;;26.83;7.13;;;;;;;14.62;54.04;98015.50;6274607;22;20027;-88
2022/04/02 04:33:48;;;;;;;23.40;6.70;;;;;;;15.16;54.04;98097.41;6274501;22;20000;-88
2022/04/02 04:36:15;;;;;;;20.17;5.80;;;;;;;14.56;54.14;98028.94;6275793;22;19992;-89
2022/04/02 04:38:41;;;;;;;23.17;5.82;;;;;;;15.28;54.19;98132.69;6274602;22;20006;-88
2022/04/02 04:41:07;;;;;;;24.48;6.07;;;;;;;15.05;54.03;98088.47;6274611;22;20041;-88
2022/04/02 04:43:34;;;;;;;20.38;4.82;;;;;;;15.24;53.99;98094.34;6274286;22;20507;-88
2022/04/02 04:46:02;;;;;;;21.00;5.75;;;;;;;15.46;53.60;98137.75;6274516;22;19996;-89
2022/04/02 04:48:28;;;;;;;21.35;5.75;;;;;;;15.36;53.88;98132.28;6274380;22;20027;-88
2022/04/02 04:50:54;;;;;;;19.52;5.43;;;;;;;14.86;53.43;98068.47;6275813;22;20341;-89
2022/04/02 04:53:19;;;;;;;24.20;5.97;;;;;;;15.24;53.76;98136.88;6274070;22;19999;-88
2022/04/02 04:55:45;;;;;;;18.70;5.28;;;;;;;14.74;53.47;98051.81;6273837;22;20352;-89
2022/04/02 04:58:10;;;;;;;29.15;6.03;;;;;;;14.83;53.56;98069.78;6273714;22;20077;-88
2022/04/02 05:00:36;;;;;;;22.60;5.65;;;;;;;14.53;53.32;97992.25;6273811;22;19996;-89
2022/04/02 05:03:02;;;;;;;21.05;5.75;;;;;;;14.39;53.36;97973.13;6273848;22;20046;-88
2022/04/02 05:05:31;;;;;;;22.50;5.47;;;;;;;15.30;53.23;98109.34;6274005;22;20397;-88
2022/04/02 05:07:58;;;;;;;23.17;5.57;;;;;;;15.09;53.11;98065.69;6273906;22;20022;-89
2022/04/02 05:10:26;;;;;;;17.42;4.82;;;;;;;15.30;52.72;98092.56;6273759;22;19995;-89
2022/04/02 05:12:51;;;;;;;15.20;4.45;;;;;;;14.71;52.52;98026.53;6274168;22;20007;-88
2022/04/02 05:15:17;;;;;;;17.90;4.97;;;;;;;14.97;52.23;98057.00;6275510;22;20023;-88
2022/04/02 05:17:43;;;;;;;18.02;4.82;;;;;;;15.74;52.11;98168.81;6273766;22;19999;-89
2022/04/02 05:20:11;;;;;;;19.73;4.72;;;;;;;15.20;51.96;98078.06;6273772;22;20023;-89
2022/04/02 05:22:37;;;;;;;18.20;5.18;;;;;;;15.33;51.50;98084.91;6273775;22;20080;-89
2022/04/02 05:25:04;;;;;;;13.40;3.83;;;;;;;15.05;50.91;98059.25;6273833;22;20010;-89
2022/04/02 05:27:30;;;;;;;19.73;4.70;;;;;;;16.05;50.56;98179.88;6275517;22;19996;-88
2022/04/02 05:29:55;;;;;;;19.20;4.95;;;;;;;15.52;50.57;98088.09;6273860;22;20078;-89
2022/04/02 05:32:21;;;;;;;13.45;3.67;;;;;;;15.64;50.17;98141.25;6273900;22;20061;-88
2022/04/02 05:34:47;;;;;;;16.20;4.70;;;;;;;16.16;49.83;98198.41;6273878;22;19996;-89
2022/04/02 05:37:13;;;;;;;14.57;4.18;;;;;;;16.07;50.01;98202.53;6273982;22;20004;-88
2022/04/02 05:39:41;;;;;;;15.20;4.75;;;;;;;15.96;49.76;98189.34;6299517;22;20414;-88
2022/04/02 05:42:07;;;;;;;18.23;5.32;;;;;;;16.27;49.78;98219.84;6273565;22;20003;-88
2022/04/02 05:44:33;;;;;;;16.30;4.93;;;;;;;16.29;49.32;98194.56;6274111;22;20000;-89
2022/04/02 05:46:59;;;;;;;16.30;4.72;;;;;;;15.74;49.36;98133.41;6275445;22;20005;-89
2022/04/02 05:49:24;;;;;;;16.10;5.07;;;;;;;15.52;49.10;98115.50;6273934;22;20357;-88
2022/04/02 05:51:50;;;;;;;14.85;4.85;;;;;;;15.68;49.18;98095.28;6273925;22;19991;-88
2022/04/02 05:54:15;;;;;;;16.67;4.35;;;;;;;16.19;48.83;98187.25;6273744;22;20379;-88
2022/04/02 05:56:42;;;;;;;10.77;3.85;;;;;;;16.08;48.59;98152.75;6273729;22;20092;-88
2022/04/02 05:59:08;;;;;;;15.43;3.92;;;;;;;16.35;48.05;98190.94;6275165;22;20438;-88
2022/04/02 06:01:35;;;;;;;14.05;3.83;;;;;;;16.40;48.50;98184.88;6273548;22;20101;-89
2022/04/02 06:04:01;;;;;;;16.88;4.55;;;;;;;16.02;48.46;98148.41;6273672;22;20003;-88
2022/04/02 06:06:26;;;;;;;13.48;3.45;;;;;;;15.63;47.86;98065.16;6273717;22;20000;-89
2022/04/02 06:08:52;;;;;;;10.70;3.47;;;;;;;15.95;47.65;98108.69;6273405;22;20004;-89
2022/04/02 06:11:17;;;;;;;11.43;3.10;;;;;;;15.57;47.36;98029.63;6273452;22;20086;-89
2022/04/02 06:13:43;;;;;;;7.40;2.55;;;;;;;16.65;46.56;98203.84;6273917;22;20008;-89
2022/04/02 06:16:08;;;;;;;5.18;2.25;;;;;;;16.43;45.81;98176.38;6273872;22;20010;-88
2022/04/02 06:18:35;;;;;;;8.18;2.35;;;;;;;16.99;44.97;98228.44;6273547;22;20437;-88
2022/04/02 06:21:03;;;;;;;10.00;2.40;;;;;;;15.84;44.76;98040.41;6273482;22;20003;-88
2022/04/02 06:23:30;;;;;;;11.27;2.70;;;;;;;17.16;44.41;98220.38;6273554;22;20464;-86
2022/04/02 06:25:56;;;;;;;7.07;2.28;;;;;;;16.36;43.96;98106.50;6273273;22;20065;-86
2022/04/02 06:28:21;;;;;;;6.55;2.10;;;;;;;16.52;43.68;98121.59;6274890;22;19996;-86
2022/04/02 06:30:47;;;;;;;6.10;2.00;;;;;;;16.83;43.39;98138.72;6274742;22;20042;-86
2022/04/02 06:33:12;;;;;;;6.60;2.22;;;;;;;17.16;42.91;98191.03;6273338;22;20382;-86
2022/04/02 06:35:38;;;;;;;5.93;1.75;;;;;;;17.25;42.80;98192.19;6274787;22;20454;-86
2022/04/02 06:38:03;;;;;;;6.18;2.38;;;;;;;17.39;42.10;98213.91;6273154;22;20445;-86
2022/04/02 06:40:29;;;;;;;8.93;2.53;;;;;;;17.39;41.73;98203.25;6272962;22;19991;-86
2022/04/02 06:42:56;;;;;;;5.60;1.92;;;;;;;16.97;41.92;98145.25;6273037;22;20008;-86
2022/04/02 06:45:23;;;;;;;6.80;1.77;;;;;;;17.20;41.75;98186.81;6272836;22;19996;-87
2022/04/02 06:47:48;;;;;;;6.90;1.60;;;;;;;17.53;41.70;98191.06;6272950;22;20438;-86
2022/04/02 06:50:14;;;;;;;7.90;2.30;;;;;;;16.86;41.37;98079.56;6273099;22;20010;-86
2022/04/02 06:52:41;;;;;;;5.50;2.00;;;;;;;17.82;41.08;98206.78;6272810;22;20000;-86
2022/04/02 06:55:11;;;;;;;4.82;1.50;;;;;;;17.87;40.69;98209.50;6272901;22;20365;-86
2022/04/02 06:57:45;;;;;;;5.05;1.48;;;;;;;17.55;40.35;98145.44;6273077;22;20356;-86
2022/04/02 07:00:11;;;;;;;4.72;1.40;;;;;;;17.35;40.03;98106.09;6274200;22;19999;-86
2022/04/02 07:02:38;;;;;;;7.20;1.98;;;;;;;18.05;40.04;98209.09;6272492;22;20016;-86
2022/04/02 07:05:07;;;;;;;4.68;1.83;;;;;;;17.75;38.41;98181.09;6274627;22;19996;-86
2022/04/02 07:07:33;;;;;;;5.00;1.92;;;;;;;18.14;39.08;98228.09;6274282;22;20518;-86
2022/04/02 07:09:58;;;;;;;7.15;1.88;;;;;;;17.67;38.91;98138.06;6272765;22;19996;-86
2022/04/02 07:12:24;;;;;;;5.10;1.55;;;;;;;17.83;38.68;98149.66;6274566;22;20066;-86
2022/04/02 07:14:49;;;;;;;5.53;1.83;;;;;;;17.55;38.80;98100.88;6273416;22;20357;-86
2022/04/02 07:17:15;;;;;;;6.32;1.55;;;;;;;18.40;38.36;98227.97;6274593;22;20000;-85
2022/04/02 07:19:41;;;;;;;6.53;2.10;;;;;;;18.43;38.54;98216.75;6272634;22;20004;-86
2022/04/02 07:22:08;;;;;;;4.50;1.30;;;;;;;18.48;38.25;98215.16;6275044;22;20039;-86
2022/04/02 07:24:37;;;;;;;5.05;1.63;;;;;;;18.56;37.92;98228.03;6275225;22;20002;-88
2022/04/02 07:27:02;;;;;;;6.55;2.10;;;;;;;17.98;37.61;98136.41;6274813;22;20064;-88
2022/04/02 07:29:31;;;;;;;5.75;1.63;;;;;;;18.21;37.38;98180.56;6274925;22;20086;-88
2022/04/02 07:31:56;;;;;;;3.95;1.42;;;;;;;16.87;37.69;97976.41;6274945;22;19996;-89
2022/04/02 07:34:22;;;;;;;3.47;1.50;;;;;;;18.07;37.83;98142.84;6275109;22;20102;-88
2022/04/02 07:36:56;;;;;;;5.28;1.75;;;;;;;18.79;37.42;98224.16;6275048;22;20010;-89
2022/04/02 07:39:25;;;;;;;4.15;1.38;;;;;;;18.27;37.20;98142.13;6277214;22;20052;-88
2022/04/02 07:42:08;;;;;;;7.35;1.60;;;;;;;18.70;37.07;98194.44;6275314;22;20019;-88
2022/04/02 07:44:46;;;;;;;5.28;1.40;;;;;;;18.98;36.84;98217.25;6277123;22;20445;-89
2022/04/02 07:47:15;;;;;;;4.47;1.55;;;;;;;19.08;36.63;98225.28;6275450;22;20010;-88
2022/04/02 07:49:46;;;;;;;6.35;1.23;;;;;;;18.39;36.91;98122.13;6275329;22;20035;-88
2022/04/02 07:52:12;;;;;;;3.17;1.33;;;;;;;18.92;36.88;98170.16;6276695;22;20472;-89
2022/04/02 07:54:42;;;;;;;3.67;1.38;;;;;;;19.25;36.46;98241.09;6276630;22;20003;-88
2022/04/02 07:57:09;;;;;;;3.47;1.40;;;;;;;19.33;36.48;98205.81;6289832;22;20015;-88
2022/04/02 07:59:44;;;;;;;4.72;1.08;;;;;;;18.87;35.52;98146.06;6289179;22;20456;-87
2022/04/02 08:05:02;;;;;;;4.75;1.35;;;;;;;19.39;35.67;98210.09;6290590;22;20056;-87
2022/04/02 08:07:32;;;;;;;3.40;1.05;;;;;;;19.12;34.85;98164.03;6285693;22;20003;-89
2022/04/02 08:09:58;;;;;;;3.65;1.10;;;;;;;19.20;35.04;98158.13;6276732;22;20011;-88
2022/04/02 08:12:25;;;;;;;3.42;0.98;;;;;;;18.87;35.16;98113.97;6276151;22;19998;-88
2022/04/02 08:14:51;;;;;;;6.00;1.08;;;;;;;19.78;35.04;98213.03;6276178;22;20030;-88
2022/04/02 08:17:19;;;;;;;2.92;1.20;;;;;;;19.72;34.89;98203.41;6275914;22;19999;-89
2022/04/02 08:19:45;;;;;;;2.63;0.93;;;;;;;19.53;34.72;98138.91;6275743;22;20026;-89
2022/04/02 08:22:11;;;;;;;3.58;1.73;;;;;;;18.98;34.08;98054.06;6276993;22;20000;-87
2022/04/02 08:24:37;;;;;;;5.90;1.58;;;;;;;19.50;33.75;98109.16;6300809;22;20002;-88
2022/04/02 08:27:16;;;;;;;3.47;1.40;;;;;;;19.67;33.62;98134.59;6274780;22;20506;-88
2022/04/02 08:29:54;;;;;;;1.42;0.90;;;;;;;20.09;34.07;98168.25;6274723;22;20049;-87
2022/04/02 08:32:47;;;;;;;3.80;1.10;;;;;;;19.97;33.03;98143.63;6274984;22;20000;-88
2022/04/02 08:35:13;;;;;;;3.67;1.52;;;;;;;19.96;33.31;98117.91;6274483;22;20006;-89
2022/04/02 08:38:00;;;;;;;2.22;1.10;;;;;;;19.99;32.37;98120.03;6274484;22;19999;-88
2022/04/02 08:40:34;;;;;;;1.98;0.80;;;;;;;20.67;32.36;98197.25;6274047;22;19999;-88
2022/04/02 08:43:30;;;;;;;2.70;1.13;;;;;;;20.83;32.20;98191.56;6273984;22;20357;-88
2022/04/02 08:46:21;;;;;;;2.95;0.90;;;;;;;21.07;32.25;98193.56;6275702;22;19999;-88
2022/04/02 08:49:18;;;;;;;3.88;1.42;;;;;;;21.10;32.52;98199.16;6275767;22;20057;-88
2022/04/02 08:51:46;;;;;;;1.40;1.00;;;;;;;20.09;32.25;98085.19;6276266;22;20034;-88
2022/04/02 08:54:25;;;;;;;2.35;1.10;;;;;;;20.41;31.21;98138.41;6274122;22;20399;-88
2022/04/02 08:56:57;;;;;;;1.85;0.90;;;;;;;19.81;31.06;98041.09;6274260;22;20086;-88
2022/04/02 08:59:40;;;;;;;3.25;0.90;;;;;;;20.68;28.33;98105.00;6273915;22;19999;-87
2022/04/02 09:02:31;;;;;;;1.48;0.57;;;;;;;21.64;28.35;98176.78;6273569;22;20069;-87
2022/04/02 09:05:17;;;;;;;1.65;0.98;;;;;;;21.66;27.67;98130.81;6273778;22;20075;-87
2022/04/02 09:08:04;;;;;;;1.88;0.88;;;;;;;22.11;27.91;98170.66;6273905;22;20357;-86
2022/04/02 09:10:55;;;;;;;3.92;1.30;;;;;;;21.73;28.21;98107.09;6274118;22;20007;-88
2022/04/02 09:13:38;;;;;;;2.47;1.13;;;;;;;22.39;27.84;98179.78;6273453;22;20534;-88
2022/04/02 09:16:06;;;;;;;2.03;1.48;;;;;;;22.32;27.58;98198.13;6273703;22;20097;-88
2022/04/02 09:18:48;;;;;;;1.80;0.90;;;;;;;22.54;27.65;98186.03;6273631;22;20078;-87
2022/04/02 09:21:32;;;;;;;3.17;1.17;;;;;;;22.84;27.55;98182.97;6273844;22;20000;-89
2022/04/02 09:25:01;;;;;;;3.60;1.45;;;;;;;22.65;26.45;98107.59;6275599;22;19999;-88
2022/04/02 09:27:45;;;;;;;3.13;0.90;;;;;;;23.34;27.08;98177.94;6151824;23;20002;-88
2022/04/02 09:30:44;;;;;;;1.73;0.90;;;;;;;23.45;27.38;98173.97;6263575;22;20083;-88
2022/04/02 09:33:40;;;;;;;6.30;1.35;;;;;;;23.51;26.12;98185.47;6275215;22;20000;-87
2022/04/02 09:36:18;;;;;;;3.47;1.10;;;;;;;23.46;27.07;98179.06;6273515;22;20003;-88
2022/04/02 09:38:50;;;;;;;2.55;1.70;;;;;;;23.56;27.53;98169.25;6273450;22;20075;-88
2022/04/02 09:41:15;;;;;;;;;;;;;;;23.72;27.62;98171.38;6273712;22;20003;-88
2022/04/02 09:43:57;;;;;;;3.25;1.48;;;;;;;23.31;27.67;98060.81;6273254;22;19974;-88
2022/04/02 09:46:47;;;;;;;4.80;1.10;;;;;;;24.07;27.09;98188.00;6273169;22;20000;-86
2022/04/02 09:49:35;;;;;;;5.50;1.40;;;;;;;24.03;27.03;98187.00;6275076;22;20053;-87
2022/04/02 09:52:05;;;;;;;4.53;1.52;;;;;;;24.15;27.73;98175.72;6273484;22;20077;-88
2022/04/02 09:54:38;;;;;;;5.80;3.17;;;;;;;24.19;27.98;98152.44;6271849;22;20015;-88
2022/04/02 09:57:14;;;;;;;7.35;4.95;;;;;;;24.34;27.98;98150.25;6273792;22;20034;-88
2022/04/02 10:00:02;;;;;;;4.32;2.88;;;;;;;24.38;28.31;98155.84;6274876;22;20003;-87
2022/04/02 10:03:00;;;;;;;5.03;2.03;;;;;;;24.42;28.42;98153.34;6273282;22;20019;-87
2022/04/02 10:05:54;;;;;;;7.18;3.42;;;;;;;24.40;28.20;98127.47;6273709;22;20004;-88
2022/04/02 10:08:47;;;;;;;7.47;3.20;;;;;;;24.25;28.09;98094.59;6273428;22;20086;-88
2022/04/02 10:11:15;;;;;;;4.80;1.88;;;;;;;24.23;28.01;98056.34;6274680;22;20065;-87
2022/04/02 10:13:41;;;;;;;4.78;2.38;;;;;;;24.44;27.75;98070.22;6273210;22;20002;-87
2022/04/02 10:16:11;;;;;;;3.88;1.75;;;;;;;23.80;27.72;98004.69;6273212;22;20003;-88
2022/04/02 10:18:40;;;;;;;3.13;1.57;;;;;;;24.60;27.82;98103.88;6273478;22;20003;-89
2022/04/02 10:21:06;;;;;;;6.55;1.98;;;;;;;24.64;27.44;98094.06;6275051;22;20246;-88
2022/04/02 10:23:36;;;;;;;5.88;1.83;;;;;;;24.54;26.99;98064.63;6273652;22;20345;-88
2022/04/02 10:26:15;;;;;;;5.82;1.80;;;;;;;25.10;27.53;98149.72;6299502;22;19999;-88
2022/04/02 10:28:52;;;;;;;4.13;1.27;;;;;;;25.25;26.98;98157.44;6273374;22;20014;-88
2022/04/02 10:31:36;;;;;;;3.83;1.52;;;;;;;24.70;26.41;98047.75;6274983;22;19992;-88
2022/04/02 10:34:12;;;;;;;5.43;2.30;;;;;;;25.47;26.78;98159.38;6273351;22;19996;-88
2022/04/02 10:36:43;;;;;;;5.68;2.20;;;;;;;24.94;26.67;98052.84;6273155;22;20004;-88
2022/04/02 10:39:09;;;;;;;6.55;3.17;;;;;;;25.88;26.43;98146.41;6273938;22;20052;-88
2022/04/02 10:41:39;;;;;;;8.55;1.75;;;;;;;26.11;26.34;98149.06;6272977;22;20086;-88
2022/04/02 10:44:21;;;;;;;6.93;2.40;;;;;;;24.98;26.38;98007.16;6272977;22;20022;-88
2022/04/02 10:46:51;;;;;;;3.80;1.55;;;;;;;25.46;26.04;98077.50;6272889;22;20007;-87
2022/04/02 10:49:26;;;;;;;4.70;1.17;;;;;;;25.37;26.15;98090.19;6273209;22;20091;-88
2022/04/02 10:51:54;;;;;;;5.78;2.35;;;;;;;25.69;26.00;98148.56;6273201;22;20002;-87
2022/04/02 10:54:27;;;;;;;4.35;1.42;;;;;;;25.77;25.71;98114.56;6273600;22;20118;-88
2022/04/02 10:56:53;;;;;;;4.10;1.35;;;;;;;25.54;26.08;98090.25;6272719;22;20436;-87
2022/04/02 10:59:20;;;;;;;5.85;1.67;;;;;;;25.34;25.92;98044.88;6272974;22;20007;-88
2022/04/02 11:01:54;;;;;;;4.10;1.48;;;;;;;26.03;25.53;98156.03;6272639;22;20073;-88
2022/04/02 11:04:33;;;;;;;3.63;1.50;;;;;;;25.42;25.94;97998.16;6273251;22;20033;-88
2022/04/02 11:07:00;;;;;;;4.75;1.67;;;;;;;25.95;25.43;98089.97;6273229;22;19996;-87
2022/04/02 11:09:36;;;;;;;4.38;1.77;;;;;;;25.93;25.54;98070.53;6274677;22;20003;-88
2022/04/02 11:12:06;;;;;;;6.50;1.30;;;;;;;26.48;25.45;98136.94;6272619;22;19996;-87
2022/04/02 11:14:53;;;;;;;2.47;1.00;;;;;;;26.77;25.29;98169.63;6273801;22;19999;-87
2022/04/02 11:17:33;;;;;;;6.13;1.88;;;;;;;26.69;25.46;98169.59;6272811;22;20053;-87
2022/04/02 11:20:09;;;;;;;5.22;0.98;;;;;;;26.70;25.16;98165.78;6274568;22;20046;-88
2022/04/02 11:22:54;;;;;;;4.97;2.00;;;;;;;26.94;24.80;98171.56;6272813;22;20035;-87
2022/04/02 11:25:31;;;;;;;6.57;1.90;;;;;;;26.98;24.94;98141.94;6272836;22;20403;-87
2022/04/02 11:28:08;;;;;;;1.98;1.38;;;;;;;27.02;24.35;98149.13;6272775;22;20004;-88
2022/04/02 11:30:46;;;;;;;13.00;1.40;;;;;;;26.29;24.50;98045.97;6272781;22;20000;-87
2022/04/02 11:33:32;;;;;;;3.17;1.50;;;;;;;26.58;24.04;98091.41;6272660;22;19995;-88
2022/04/02 11:36:11;;;;;;;6.07;1.85;;;;;;;26.64;24.83;98062.25;6272878;22;19995;-87
2022/04/02 11:38:49;;;;;;;6.00;2.20;;;;;;;27.23;24.78;98133.78;6272743;22;20459;-87
2022/04/02 11:41:20;;;;;;;9.15;3.20;;;;;;;26.33;24.31;98092.16;6272669;22;20083;-87
2022/04/02 11:43:47;;;;;;;7.07;4.70;;;;;;;26.61;24.68;98127.88;6272704;22;20356;-88